UPSVAC Airport Information Service

San Diego International Airport

ICAO: KSAN Country: United States
Latitude: 32.7336 Longitude: -117.189
Latest Arrival : UPSJUMP (RJAA-KSAN) Latest Departure : UPSJUMP (KSAN-KSDF)


WX CaptureLIVE
Data provided by noaa.gov | Fetched at 10:48:55

METAR : KSAN 010951Z 00000KT 10SM CLR 09/02 A3021 RMK AO2 SLP229 T00890017

TAF : KSAN 010857Z 0109/0212 VRB04KT P6SM SKC FM012100 29008KT P6SM SKC FM020100 VRB04KT P6SM SKC


Runway Data for KSAN
Data provided by openaviationdata.com

Runway ID Mag Var Hdg Length Elevation Surface ILS Freq ILS Id ILS Slope
9 13 92° 9394 ft 15 ft Concrete 110.9 ISAN 3
27 13 272° 9394 ft 15 ft Concrete 110.9 IUBR 0

San Diego International Airport, United States
Use only for reference purposes



Not for navigational purposes.